createdAt,value
2023-05-17T00:02:01.573Z,10.90
2023-05-17T00:04:28.064Z,10.80
2023-05-17T00:06:54.601Z,10.90
2023-05-17T00:09:21.021Z,10.80
2023-05-17T00:11:47.761Z,10.80
2023-05-17T00:14:14.179Z,10.80
2023-05-17T00:16:40.600Z,10.80
2023-05-17T00:19:07.310Z,10.80
2023-05-17T00:21:33.818Z,10.70
2023-05-17T00:24:00.340Z,10.60
2023-05-17T00:26:26.808Z,10.50
2023-05-17T00:28:53.276Z,10.40
2023-05-17T00:31:19.752Z,10.40
2023-05-17T00:33:46.226Z,10.40
2023-05-17T00:36:12.729Z,10.40
2023-05-17T00:38:39.227Z,10.50
2023-05-17T00:41:05.701Z,10.40
2023-05-17T00:43:32.143Z,10.40
2023-05-17T00:45:58.611Z,10.40
2023-05-17T00:48:25.211Z,10.50
2023-05-17T00:50:51.898Z,10.50
2023-05-17T00:53:18.360Z,10.60
2023-05-17T00:55:44.857Z,10.60
2023-05-17T00:58:11.311Z,10.60
2023-05-17T01:00:37.781Z,10.60
2023-05-17T01:03:04.368Z,10.60
2023-05-17T01:05:30.967Z,10.60
2023-05-17T01:07:57.554Z,10.60
2023-05-17T01:10:24.031Z,10.60
2023-05-17T01:12:50.466Z,10.60
2023-05-17T01:15:16.996Z,10.60
2023-05-17T01:17:43.468Z,10.60
2023-05-17T01:20:10.143Z,10.70
2023-05-17T01:22:36.757Z,10.60
2023-05-17T01:25:03.224Z,10.60
2023-05-17T01:27:29.706Z,10.70
2023-05-17T01:29:56.187Z,10.80
2023-05-17T01:32:22.701Z,10.90
2023-05-17T01:34:49.215Z,10.90
2023-05-17T01:37:15.694Z,11.00
2023-05-17T01:39:42.188Z,11.10
2023-05-17T01:42:08.622Z,11.10
2023-05-17T01:44:35.102Z,11.20
2023-05-17T01:47:01.602Z,11.30
2023-05-17T01:49:28.056Z,11.20
2023-05-17T01:51:54.492Z,11.20
2023-05-17T01:54:20.956Z,11.20
2023-05-17T01:56:47.439Z,11.20
2023-05-17T01:59:13.868Z,11.20
2023-05-17T02:01:40.308Z,11.10
2023-05-17T02:04:06.731Z,11.10
2023-05-17T02:06:33.246Z,11.10
2023-05-17T02:08:59.750Z,11.00
2023-05-17T02:11:26.235Z,11.00
2023-05-17T02:13:52.841Z,11.00
2023-05-17T02:16:19.290Z,11.00
2023-05-17T02:18:45.874Z,11.10
2023-05-17T02:21:12.379Z,11.10
2023-05-17T02:23:38.879Z,11.00
2023-05-17T02:26:05.342Z,10.90
2023-05-17T02:28:31.787Z,10.90
2023-05-17T02:30:58.196Z,10.70
2023-05-17T02:33:24.799Z,10.60
2023-05-17T02:35:51.335Z,10.60
2023-05-17T02:38:17.874Z,10.60
2023-05-17T02:40:44.339Z,10.50
2023-05-17T02:43:10.817Z,10.50
2023-05-17T02:45:37.299Z,10.40
2023-05-17T02:48:03.774Z,10.50
2023-05-17T02:50:30.299Z,10.50
2023-05-17T02:52:56.749Z,10.50
2023-05-17T02:55:23.252Z,10.40
2023-05-17T02:57:49.683Z,10.30
2023-05-17T03:00:16.195Z,10.30
2023-05-17T03:02:42.749Z,10.20
2023-05-17T03:05:09.278Z,10.10
2023-05-17T03:07:35.751Z,10.00
2023-05-17T03:10:02.233Z,9.90
2023-05-17T03:12:29.689Z,9.90
2023-05-17T03:14:56.275Z,9.90
2023-05-17T03:17:22.721Z,9.90
2023-05-17T03:19:49.311Z,9.90
2023-05-17T03:22:15.869Z,9.90
2023-05-17T03:24:42.284Z,10.00
2023-05-17T03:27:08.799Z,10.00
2023-05-17T03:29:35.272Z,10.00
2023-05-17T03:32:01.760Z,10.10
2023-05-17T03:34:28.261Z,10.00
2023-05-17T03:36:54.686Z,10.00
2023-05-17T03:39:21.160Z,9.90
2023-05-17T03:41:47.588Z,9.90
2023-05-17T03:44:14.068Z,9.90
2023-05-17T03:46:40.509Z,9.90
2023-05-17T03:49:07.098Z,9.90
2023-05-17T03:51:33.670Z,9.80
2023-05-17T03:54:00.172Z,9.80
2023-05-17T03:56:26.672Z,9.80
2023-05-17T03:58:53.147Z,9.80
2023-05-17T04:01:19.613Z,9.70
2023-05-17T04:03:46.124Z,9.70
2023-05-17T04:06:12.602Z,9.60
2023-05-17T04:08:39.093Z,9.60
2023-05-17T04:11:05.578Z,9.60
2023-05-17T04:13:32.056Z,9.50
2023-05-17T04:15:58.545Z,9.50
2023-05-17T04:18:25.166Z,9.50
2023-05-17T04:20:51.661Z,9.60
2023-05-17T04:23:18.112Z,9.50
2023-05-17T04:25:44.540Z,9.50
2023-05-17T04:28:10.967Z,9.50
2023-05-17T04:30:37.438Z,9.50
2023-05-17T04:33:04.025Z,9.60
2023-05-17T04:35:30.743Z,9.60
2023-05-17T04:37:57.312Z,9.60
2023-05-17T04:40:23.809Z,9.60
2023-05-17T04:42:50.237Z,9.60
2023-05-17T04:45:16.905Z,9.60
2023-05-17T04:47:43.349Z,9.60
2023-05-17T04:50:09.877Z,9.50
2023-05-17T04:52:36.357Z,9.50
2023-05-17T04:55:02.800Z,9.50
2023-05-17T04:57:29.244Z,9.50
2023-05-17T04:59:55.667Z,9.60
2023-05-17T05:02:22.099Z,9.60
2023-05-17T05:04:48.593Z,9.60
2023-05-17T05:07:15.131Z,9.60
2023-05-17T05:09:41.610Z,9.60
2023-05-17T05:12:08.108Z,9.60
2023-05-17T05:14:34.537Z,9.70
2023-05-17T05:17:00.996Z,9.70
2023-05-17T05:19:29.886Z,9.80
2023-05-17T05:21:56.337Z,9.80
2023-05-17T05:24:22.800Z,9.80
2023-05-17T05:26:49.290Z,9.80
2023-05-17T05:29:15.772Z,9.90
2023-05-17T05:31:42.308Z,9.90
2023-05-17T05:34:08.863Z,10.00
2023-05-17T05:36:35.318Z,10.10
2023-05-17T05:39:01.752Z,10.10
2023-05-17T05:41:28.187Z,10.20
2023-05-17T05:43:56.881Z,10.30
2023-05-17T05:46:23.357Z,10.30
2023-05-17T05:48:49.870Z,10.30
2023-05-17T05:51:16.380Z,10.40
2023-05-17T05:53:42.851Z,10.50
2023-05-17T05:56:09.446Z,10.60
2023-05-17T05:58:35.932Z,10.70
2023-05-17T06:01:04.093Z,10.80
2023-05-17T06:03:32.469Z,10.80
2023-05-17T06:05:59.012Z,10.80
2023-05-17T06:08:25.581Z,10.90
2023-05-17T06:10:52.026Z,10.90
2023-05-17T06:13:18.458Z,10.90
2023-05-17T06:15:44.930Z,10.90
2023-05-17T06:18:11.417Z,10.90
2023-05-17T06:20:37.934Z,10.90
2023-05-17T06:23:04.369Z,10.90
2023-05-17T06:25:30.830Z,11.00
2023-05-17T06:27:57.274Z,11.00
2023-05-17T06:30:23.746Z,11.10
2023-05-17T06:32:50.254Z,11.20
2023-05-17T06:35:17.044Z,11.30
2023-05-17T06:37:43.494Z,11.40
2023-05-17T06:40:16.053Z,11.50
2023-05-17T06:42:43.284Z,11.50
2023-05-17T06:45:09.721Z,11.50
2023-05-17T06:47:36.286Z,11.60
2023-05-17T06:50:02.840Z,11.70
2023-05-17T06:52:29.292Z,11.80
2023-05-17T06:54:55.714Z,11.80
2023-05-17T06:57:22.206Z,11.90
2023-05-17T06:59:48.824Z,12.00
2023-05-17T07:02:18.102Z,12.20
2023-05-17T07:04:44.575Z,12.30
2023-05-17T07:07:11.060Z,12.30
2023-05-17T07:09:37.484Z,12.30
2023-05-17T07:12:03.968Z,12.40
2023-05-17T07:14:30.435Z,12.40
2023-05-17T07:16:56.925Z,12.40
2023-05-17T07:19:23.654Z,12.50
2023-05-17T07:21:50.175Z,12.50
2023-05-17T07:24:16.647Z,12.60
2023-05-17T07:26:43.098Z,12.60
2023-05-17T07:29:09.644Z,12.80
2023-05-17T07:31:36.136Z,12.90
2023-05-17T07:34:02.683Z,12.90
2023-05-17T07:36:29.259Z,13.00
2023-05-17T07:38:55.762Z,12.90
2023-05-17T07:41:22.383Z,13.10
2023-05-17T07:43:48.908Z,13.50
2023-05-17T07:46:15.336Z,13.60
2023-05-17T07:48:41.918Z,13.50
2023-05-17T07:51:08.515Z,13.60
2023-05-17T07:53:34.996Z,13.90
2023-05-17T07:56:01.493Z,14.00
2023-05-17T07:58:27.906Z,14.00
2023-05-17T08:00:54.395Z,14.20
2023-05-17T08:03:21.833Z,14.40
2023-05-17T08:05:48.434Z,14.50
2023-05-17T08:08:14.899Z,14.70
2023-05-17T08:10:41.353Z,14.70
2023-05-17T08:13:07.794Z,14.60
2023-05-17T08:15:34.216Z,14.50
2023-05-17T08:18:03.746Z,14.50
2023-05-17T08:20:31.040Z,14.70
2023-05-17T08:22:57.475Z,14.90
2023-05-17T08:25:23.939Z,15.20
2023-05-17T08:27:50.361Z,15.40
2023-05-17T08:30:28.230Z,15.50
2023-05-17T08:32:55.749Z,15.30
2023-05-17T08:35:22.283Z,15.00
2023-05-17T08:37:48.771Z,15.20
2023-05-17T08:40:15.303Z,15.70
2023-05-17T08:42:41.820Z,16.00
2023-05-17T08:45:08.285Z,16.60
2023-05-17T08:47:34.858Z,17.10
2023-05-17T08:50:01.391Z,17.20
2023-05-17T08:52:27.871Z,17.30
2023-05-17T08:54:54.366Z,17.10
2023-05-17T08:57:20.854Z,16.70
2023-05-17T08:59:47.393Z,16.20
2023-05-17T09:02:13.894Z,15.70
2023-05-17T09:04:40.542Z,15.50
2023-05-17T09:07:07.114Z,15.20
2023-05-17T09:09:33.605Z,15.00
2023-05-17T09:12:00.078Z,15.10
2023-05-17T09:14:26.540Z,15.60
2023-05-17T09:16:53.025Z,16.40
2023-05-17T09:19:19.532Z,16.80
2023-05-17T09:21:46.047Z,16.80
2023-05-17T09:24:12.484Z,16.70
2023-05-17T09:26:39.992Z,16.60
2023-05-17T09:29:06.483Z,16.70
2023-05-17T09:31:32.902Z,17.20
2023-05-17T09:33:59.377Z,17.90
2023-05-17T09:36:25.866Z,18.10
2023-05-17T09:38:52.306Z,18.20
2023-05-17T09:41:18.734Z,18.70
2023-05-17T09:43:45.190Z,19.10
2023-05-17T09:46:11.670Z,19.30
2023-05-17T09:48:38.238Z,19.10
2023-05-17T09:51:04.750Z,19.10
2023-05-17T09:53:31.205Z,19.40
2023-05-17T09:55:57.633Z,19.70
2023-05-17T09:58:24.117Z,19.90
2023-05-17T10:00:50.590Z,20.20
2023-05-17T10:03:17.133Z,20.40
2023-05-17T10:05:43.694Z,20.40
2023-05-17T10:08:10.151Z,20.20
2023-05-17T10:10:36.630Z,19.60
2023-05-17T10:13:03.113Z,19.10
2023-05-17T10:15:29.780Z,19.30
2023-05-17T10:17:56.407Z,19.40
2023-05-17T10:20:22.850Z,19.50
2023-05-17T10:22:49.339Z,19.50
2023-05-17T10:25:15.790Z,19.50
2023-05-17T10:27:42.256Z,19.30
2023-05-17T10:30:08.733Z,19.00
2023-05-17T10:32:35.281Z,19.10
2023-05-17T10:35:11.464Z,19.00
2023-05-17T10:37:38.575Z,19.00
2023-05-17T10:40:05.027Z,19.10
2023-05-17T10:42:31.454Z,19.00
2023-05-17T10:44:57.945Z,19.20
2023-05-17T10:47:24.433Z,19.60
2023-05-17T10:49:50.887Z,19.60
2023-05-17T10:52:17.367Z,19.50
2023-05-17T10:54:43.898Z,19.50
2023-05-17T10:57:10.365Z,19.00
2023-05-17T10:59:36.866Z,19.20
2023-05-17T11:02:03.349Z,19.70
2023-05-17T11:04:29.903Z,20.00
2023-05-17T11:06:56.372Z,19.80
2023-05-17T11:09:22.771Z,19.70
2023-05-17T11:11:49.256Z,19.80
2023-05-17T11:14:15.664Z,19.80
2023-05-17T11:16:42.141Z,19.80
2023-05-17T11:19:08.691Z,19.80
2023-05-17T11:21:35.297Z,20.20
2023-05-17T11:24:01.713Z,20.30
2023-05-17T11:26:28.154Z,20.30
2023-05-17T11:28:54.639Z,20.40
2023-05-17T11:31:21.069Z,21.00
2023-05-17T11:33:47.558Z,21.10
2023-05-17T11:36:14.059Z,20.90
2023-05-17T11:38:40.520Z,20.80
2023-05-17T11:41:10.340Z,20.70
2023-05-17T11:43:39.506Z,20.60
2023-05-17T11:46:06.017Z,21.10
2023-05-17T11:48:32.743Z,21.70
2023-05-17T11:51:01.974Z,21.90
2023-05-17T11:53:28.928Z,21.70
2023-05-17T11:55:55.420Z,21.70
2023-05-17T11:58:21.928Z,21.90
2023-05-17T12:00:48.459Z,22.30
2023-05-17T12:03:15.025Z,22.70
2023-05-17T12:05:41.559Z,23.20
2023-05-17T12:08:08.060Z,23.10
2023-05-17T12:10:35.038Z,22.70
2023-05-17T12:13:01.753Z,22.20
2023-05-17T12:15:28.225Z,22.20
2023-05-17T12:17:54.822Z,22.10
2023-05-17T12:20:21.478Z,21.90
2023-05-17T12:22:47.986Z,22.40
2023-05-17T12:25:14.428Z,22.70
2023-05-17T12:27:40.913Z,22.80
2023-05-17T12:30:07.366Z,22.80
2023-05-17T12:32:33.859Z,23.10
2023-05-17T12:35:00.314Z,23.50
2023-05-17T12:37:26.753Z,23.40
2023-05-17T12:39:53.234Z,23.10
2023-05-17T12:42:19.654Z,22.50
2023-05-17T12:44:46.122Z,22.10
2023-05-17T12:47:12.620Z,21.70
2023-05-17T12:49:39.091Z,21.50
2023-05-17T12:52:05.532Z,21.60
2023-05-17T12:54:32.009Z,22.10
2023-05-17T12:56:58.491Z,22.10
2023-05-17T12:59:24.955Z,22.00
2023-05-17T13:01:51.387Z,21.90
2023-05-17T13:04:18.050Z,21.50
2023-05-17T13:06:44.562Z,21.30
2023-05-17T13:09:11.044Z,21.50
2023-05-17T13:11:37.522Z,22.20
2023-05-17T13:14:04.014Z,22.10
2023-05-17T13:16:30.477Z,21.90
2023-05-17T13:18:57.097Z,21.70
2023-05-17T13:21:23.596Z,21.60
2023-05-17T13:23:50.082Z,21.30
2023-05-17T13:26:16.558Z,21.10
2023-05-17T13:28:42.980Z,20.90
2023-05-17T13:31:09.428Z,20.50
2023-05-17T13:33:36.042Z,20.50
2023-05-17T13:36:02.623Z,21.00
2023-05-17T13:38:29.098Z,21.30
2023-05-17T13:40:55.599Z,21.40
2023-05-17T13:43:22.102Z,21.60
2023-05-17T13:45:48.576Z,21.50
2023-05-17T13:48:15.151Z,21.20
2023-05-17T13:50:41.635Z,21.00
2023-05-17T13:53:08.109Z,21.00
2023-05-17T13:55:34.556Z,20.80
2023-05-17T13:58:01.043Z,20.80
2023-05-17T14:00:27.720Z,21.00
2023-05-17T14:02:54.407Z,21.20
2023-05-17T14:05:20.882Z,21.20
2023-05-17T14:07:47.420Z,21.30
2023-05-17T14:10:13.908Z,21.50
2023-05-17T14:12:40.341Z,21.30
2023-05-17T14:15:06.820Z,21.10
2023-05-17T14:17:33.303Z,20.90
2023-05-17T14:19:59.955Z,20.80
2023-05-17T14:22:26.458Z,20.80
2023-05-17T14:24:52.910Z,20.70
2023-05-17T14:27:19.339Z,20.80
2023-05-17T14:29:45.801Z,20.60
2023-05-17T14:32:12.317Z,20.30
2023-05-17T14:34:38.817Z,20.20
2023-05-17T14:37:05.285Z,20.20
2023-05-17T14:39:31.757Z,20.20
2023-05-17T14:41:58.185Z,20.30
2023-05-17T14:44:24.613Z,20.30
2023-05-17T14:46:51.081Z,20.40
2023-05-17T14:49:17.685Z,20.60
2023-05-17T14:51:44.189Z,20.70
2023-05-17T14:54:12.280Z,20.80
2023-05-17T14:56:40.054Z,20.70
2023-05-17T14:59:06.529Z,20.80
2023-05-17T15:01:33.033Z,20.70
2023-05-17T15:03:59.634Z,20.50
2023-05-17T15:06:26.227Z,20.30
2023-05-17T15:08:52.722Z,20.10
2023-05-17T15:11:19.192Z,20.10
2023-05-17T15:13:45.650Z,20.10
2023-05-17T15:16:12.182Z,20.00
2023-05-17T15:18:38.677Z,19.80
2023-05-17T15:21:05.183Z,20.00
2023-05-17T15:23:31.710Z,20.10
2023-05-17T15:25:58.190Z,20.20
2023-05-17T15:28:24.671Z,20.00
2023-05-17T15:30:51.089Z,20.00
2023-05-17T15:33:17.679Z,20.10
2023-05-17T15:35:44.181Z,20.00
2023-05-17T15:38:10.604Z,19.80
2023-05-17T15:40:37.084Z,19.50
2023-05-17T15:43:03.611Z,19.50
2023-05-17T15:45:30.335Z,19.80
2023-05-17T15:47:57.249Z,20.20
2023-05-17T15:50:23.835Z,20.40
2023-05-17T15:52:50.327Z,20.60
2023-05-17T15:55:16.749Z,20.80
2023-05-17T15:57:43.205Z,20.90
2023-05-17T16:00:09.788Z,21.00
2023-05-17T16:02:36.269Z,21.20
2023-05-17T16:05:03.867Z,21.20
2023-05-17T16:07:30.646Z,21.10
2023-05-17T16:09:57.088Z,21.40
2023-05-17T16:12:23.513Z,21.40
2023-05-17T16:14:49.998Z,21.40
2023-05-17T16:17:16.517Z,21.60
2023-05-17T16:19:42.978Z,21.30
2023-05-17T16:22:09.485Z,20.80
2023-05-17T16:24:35.961Z,20.70
2023-05-17T16:27:02.453Z,20.50
2023-05-17T16:29:28.921Z,20.50
2023-05-17T16:31:55.405Z,20.70
2023-05-17T16:34:21.912Z,20.80
2023-05-17T16:36:48.434Z,20.90
2023-05-17T16:39:14.920Z,20.90
2023-05-17T16:41:41.389Z,21.00
2023-05-17T16:44:07.878Z,21.30
2023-05-17T16:46:34.377Z,21.30
2023-05-17T16:49:00.912Z,21.00
2023-05-17T16:51:27.533Z,20.80
2023-05-17T16:53:54.002Z,20.60
2023-05-17T16:56:20.507Z,20.30
2023-05-17T16:58:47.223Z,20.10
2023-05-17T17:01:13.690Z,19.90
2023-05-17T17:03:40.180Z,19.80
2023-05-17T17:06:06.702Z,20.00
2023-05-17T17:08:33.130Z,19.90
2023-05-17T17:10:59.596Z,19.80
2023-05-17T17:13:26.243Z,19.70
2023-05-17T17:15:52.691Z,19.50
2023-05-17T17:18:19.173Z,19.20
2023-05-17T17:20:45.748Z,19.10
2023-05-17T17:23:12.165Z,19.00
2023-05-17T17:25:38.661Z,19.10
2023-05-17T17:28:05.153Z,19.20
2023-05-17T17:30:31.882Z,19.20
2023-05-17T17:32:58.748Z,19.30
2023-05-17T17:35:25.299Z,19.30
2023-05-17T17:37:51.780Z,19.10
2023-05-17T17:40:18.364Z,19.10
2023-05-17T17:42:44.821Z,19.10
2023-05-17T17:45:11.280Z,19.10
2023-05-17T17:47:37.910Z,19.20
2023-05-17T17:50:04.451Z,19.10
2023-05-17T17:52:31.098Z,19.10
2023-05-17T17:54:57.880Z,18.90
2023-05-17T17:57:24.304Z,18.80
2023-05-17T17:59:50.721Z,18.60
2023-05-17T18:02:17.358Z,18.60
2023-05-17T18:04:43.842Z,18.40
2023-05-17T18:07:10.299Z,18.40
2023-05-17T18:09:36.836Z,18.30
2023-05-17T18:12:03.325Z,18.20
2023-05-17T18:14:29.813Z,18.20
2023-05-17T18:16:56.898Z,18.20
2023-05-17T18:19:23.590Z,18.20
2023-05-17T18:21:50.128Z,18.10
2023-05-17T18:24:16.673Z,18.00
2023-05-17T18:26:43.148Z,17.90
2023-05-17T18:29:09.646Z,17.80
2023-05-17T18:31:36.128Z,17.60
2023-05-17T18:34:02.627Z,17.50
2023-05-17T18:36:29.058Z,17.40
2023-05-17T18:38:55.495Z,17.30
2023-05-17T18:41:21.992Z,17.20
2023-05-17T18:43:48.439Z,17.10
2023-05-17T18:46:14.866Z,17.00
2023-05-17T18:48:41.368Z,17.00
2023-05-17T18:51:07.845Z,16.90
2023-05-17T18:53:34.356Z,16.80
2023-05-17T18:56:00.817Z,16.60
2023-05-17T18:58:27.497Z,16.50
2023-05-17T19:00:54.011Z,16.40
2023-05-17T19:03:20.466Z,16.30
2023-05-17T19:05:46.928Z,16.20
2023-05-17T19:08:13.413Z,16.20
2023-05-17T19:10:39.841Z,16.10
2023-05-17T19:13:06.365Z,15.90
2023-05-17T19:15:32.826Z,15.80
2023-05-17T19:17:59.352Z,15.70
2023-05-17T19:20:25.837Z,15.60
2023-05-17T19:22:52.317Z,15.60
2023-05-17T19:25:20.866Z,15.50
2023-05-17T19:27:47.635Z,15.40
2023-05-17T19:30:14.135Z,15.30
2023-05-17T19:32:40.646Z,15.20
2023-05-17T19:35:07.161Z,15.10
2023-05-17T19:37:33.607Z,15.00
2023-05-17T19:40:00.075Z,15.00
2023-05-17T19:42:26.758Z,14.90
2023-05-17T19:44:53.257Z,14.80
2023-05-17T19:47:19.694Z,14.80
2023-05-17T19:49:46.312Z,14.70
2023-05-17T19:52:12.849Z,14.60
2023-05-17T19:54:39.297Z,14.50
2023-05-17T19:57:05.788Z,14.50
2023-05-17T19:59:32.314Z,14.40
2023-05-17T20:01:58.859Z,14.30
2023-05-17T20:04:25.391Z,14.20
2023-05-17T20:06:51.896Z,14.20
2023-05-17T20:09:18.402Z,14.20
2023-05-17T20:11:44.864Z,14.00
2023-05-17T20:14:11.366Z,14.00
2023-05-17T20:16:37.838Z,13.90
2023-05-17T20:19:04.343Z,13.80
2023-05-17T20:21:30.831Z,13.80
2023-05-17T20:23:57.806Z,13.70
2023-05-17T20:26:24.227Z,13.70
2023-05-17T20:28:50.739Z,13.60
2023-05-17T20:31:17.288Z,13.50
2023-05-17T20:33:43.734Z,13.50
2023-05-17T20:36:10.222Z,13.40
2023-05-17T20:38:36.653Z,13.40
2023-05-17T20:41:03.149Z,13.30
2023-05-17T20:43:29.630Z,13.30
2023-05-17T20:45:56.946Z,13.20
2023-05-17T20:48:23.441Z,13.20
2023-05-17T20:50:49.894Z,13.10
2023-05-17T20:53:16.769Z,13.10
2023-05-17T20:55:43.184Z,13.00
2023-05-17T20:58:09.652Z,12.90
2023-05-17T21:00:36.135Z,12.80
2023-05-17T21:03:02.715Z,12.70
2023-05-17T21:05:29.312Z,12.60
2023-05-17T21:07:55.761Z,12.50
2023-05-17T21:10:22.281Z,12.50
2023-05-17T21:12:48.760Z,12.40
2023-05-17T21:15:17.395Z,12.30
2023-05-17T21:17:57.949Z,12.30
2023-05-17T21:20:24.906Z,12.30
2023-05-17T21:22:51.515Z,12.20
2023-05-17T21:25:18.002Z,12.20
2023-05-17T21:27:44.752Z,12.00
2023-05-17T21:30:11.268Z,11.90
2023-05-17T21:32:37.770Z,11.80
2023-05-17T21:35:04.282Z,11.70
2023-05-17T21:37:30.775Z,11.60
2023-05-17T21:39:57.871Z,11.50
2023-05-17T21:42:24.316Z,11.40
2023-05-17T21:44:50.785Z,11.30
2023-05-17T21:47:17.443Z,11.30
2023-05-17T21:49:43.882Z,11.20
2023-05-17T21:52:10.364Z,11.10
2023-05-17T21:54:36.837Z,11.00
2023-05-17T21:57:03.341Z,10.90
2023-05-17T21:59:29.865Z,10.80
2023-05-17T22:01:56.920Z,10.70
2023-05-17T22:04:23.366Z,10.60
2023-05-17T22:06:49.827Z,10.50
2023-05-17T22:09:16.444Z,10.50
2023-05-17T22:11:43.123Z,10.50
2023-05-17T22:14:09.547Z,10.50
2023-05-17T22:16:36.111Z,10.50
2023-05-17T22:19:02.770Z,10.50
2023-05-17T22:21:29.222Z,10.50
2023-05-17T22:23:55.657Z,10.50
2023-05-17T22:26:22.130Z,10.50
2023-05-17T22:28:48.650Z,10.60
2023-05-17T22:31:15.271Z,10.50
2023-05-17T22:33:41.797Z,10.50
2023-05-17T22:36:08.263Z,10.50
2023-05-17T22:38:34.773Z,10.50
2023-05-17T22:41:01.276Z,10.50
2023-05-17T22:43:27.813Z,10.60
2023-05-17T22:45:54.298Z,10.60
2023-05-17T22:48:20.828Z,10.50
2023-05-17T22:50:47.345Z,10.50
2023-05-17T22:53:13.807Z,10.40
2023-05-17T22:55:40.313Z,10.40
2023-05-17T22:58:06.786Z,10.40
2023-05-17T23:00:33.247Z,10.50
2023-05-17T23:02:59.761Z,10.50
2023-05-17T23:05:26.455Z,10.50
2023-05-17T23:07:53.122Z,10.50
2023-05-17T23:10:19.613Z,10.50
2023-05-17T23:12:46.120Z,10.50
2023-05-17T23:15:12.624Z,10.40
2023-05-17T23:17:39.284Z,10.30
2023-05-17T23:20:05.823Z,10.10
2023-05-17T23:22:32.307Z,10.00
2023-05-17T23:24:58.800Z,9.90
2023-05-17T23:27:25.217Z,9.80
2023-05-17T23:29:51.697Z,9.80
2023-05-17T23:32:18.181Z,9.80
2023-05-17T23:34:44.666Z,9.70
2023-05-17T23:37:11.099Z,9.70
2023-05-17T23:39:37.531Z,9.70
2023-05-17T23:42:03.973Z,9.70
2023-05-17T23:44:30.456Z,9.70
2023-05-17T23:46:56.908Z,9.70
2023-05-17T23:49:23.378Z,9.80
2023-05-17T23:51:49.817Z,9.80
2023-05-17T23:54:16.275Z,9.80
2023-05-17T23:56:42.848Z,9.80
2023-05-17T23:59:09.278Z,9.80
